Time;durP1;ratioP1;P1;durP2;ratioP2;P2;SDS_P1;SDS_P2;PMS_P1;PMS_P2;Temp;Humidity;BMP_temperature;BMP_pressure;BME280_temperature;BME280_humidity;BME280_pressure;Samples;Min_cycle;Max_cycle;Signal;HPM_P1;HPM_P2
2023/08/15 00:01:25;;;;;;;11.75;8.25;;;26.30;69.50;;;;;;4992353;28;20441;-79
2023/08/15 00:03:51;;;;;;;11.35;8.88;;;26.30;69.80;;;;;;4991482;28;20039;-79
2023/08/15 00:06:20;;;;;;;11.67;7.97;;;26.30;69.80;;;;;;4975350;28;20117;-78
2023/08/15 00:08:48;;;;;;;11.40;8.98;;;26.30;69.90;;;;;;4975409;28;20652;-78
2023/08/15 00:11:14;;;;;;;11.93;7.63;;;26.20;70.00;;;;;;4976850;28;20037;-78
2023/08/15 00:13:39;;;;;;;9.73;7.73;;;26.20;69.80;;;;;;4976465;28;20031;-78
2023/08/15 00:16:05;;;;;;;11.67;8.47;;;26.10;69.40;;;;;;4981502;28;20031;-78
2023/08/15 00:18:31;;;;;;;10.67;8.07;;;26.20;69.20;;;;;;4994471;28;20034;-78
2023/08/15 00:20:57;;;;;;;8.02;7.30;;;26.20;69.10;;;;;;4995783;28;20485;-79
2023/08/15 00:23:23;;;;;;;18.73;8.93;;;26.20;69.00;;;;;;4995740;28;20061;-79
2023/08/15 00:25:49;;;;;;;10.60;8.90;;;26.10;69.10;;;;;;4994394;28;20030;-79
2023/08/15 00:28:14;;;;;;;10.23;8.60;;;26.10;69.20;;;;;;4994308;28;20157;-79
2023/08/15 00:30:41;;;;;;;13.43;8.60;;;26.00;69.20;;;;;;4993459;28;20022;-79
2023/08/15 00:33:08;;;;;;;11.55;8.32;;;26.10;68.90;;;;;;4977460;28;20396;-79
2023/08/15 00:35:34;;;;;;;10.55;8.82;;;26.00;68.90;;;;;;4994221;28;20030;-78
2023/08/15 00:38:00;;;;;;;9.60;8.60;;;26.00;69.30;;;;;;4993583;28;20022;-79
2023/08/15 00:40:26;;;;;;;11.43;8.77;;;26.00;69.20;;;;;;4977661;28;20054;-78
2023/08/15 00:42:52;;;;;;;9.80;8.73;;;26.00;69.60;;;;;;4993435;28;20045;-79
2023/08/15 00:45:17;;;;;;;9.73;8.83;;;25.90;69.20;;;;;;4993694;28;20112;-78
2023/08/15 00:47:44;;;;;;;9.80;8.70;;;25.90;69.30;;;;;;4993274;28;20047;-78
2023/08/15 00:50:10;;;;;;;;;;;25.90;69.20;;;;;;4995235;28;20034;-78
2023/08/15 00:52:37;;;;;;;9.07;8.25;;;25.90;67.20;;;;;;4977932;28;19917;-78
2023/08/15 00:55:04;;;;;;;9.48;8.30;;;25.80;69.60;;;;;;4988113;28;20022;-79
2023/08/15 00:57:30;;;;;;;10.65;8.95;;;25.80;70.10;;;;;;4994315;28;20551;-78
2023/08/15 00:59:56;;;;;;;10.23;8.87;;;25.80;70.10;;;;;;4993102;28;20022;-78
2023/08/15 01:02:22;;;;;;;12.05;9.02;;;25.80;70.10;;;;;;4993191;28;20269;-79
2023/08/15 01:04:49;;;;;;;11.40;8.88;;;25.70;70.40;;;;;;4995394;28;20023;-78
2023/08/15 01:07:17;;;;;;;9.90;8.88;;;25.70;70.40;;;;;;4993445;28;20026;-78
2023/08/15 01:09:44;;;;;;;12.70;9.65;;;25.70;70.50;;;;;;4992832;28;20516;-79
2023/08/15 01:12:24;;;;;;;11.00;10.02;;;25.70;70.50;;;;;;4993069;28;20034;-79
2023/08/15 01:14:55;;;;;;;12.43;9.93;;;25.70;69.10;;;;;;4992343;28;20030;-79
2023/08/15 01:17:29;;;;;;;14.07;9.88;;;25.70;70.50;;;;;;4978986;28;20030;-78
2023/08/15 01:19:59;;;;;;;11.80;10.20;;;25.70;70.30;;;;;;4976751;28;20035;-79
2023/08/15 01:22:28;;;;;;;11.00;9.93;;;25.60;70.40;;;;;;4992813;28;20041;-78
2023/08/15 01:24:54;;;;;;;12.60;10.35;;;25.60;70.60;;;;;;4993020;28;20022;-79
2023/08/15 01:27:20;;;;;;;10.15;9.13;;;25.60;70.90;;;;;;4993826;28;20531;-79
2023/08/15 01:29:46;;;;;;;13.73;9.80;;;25.60;71.00;;;;;;4992518;28;20046;-79
2023/08/15 01:32:36;;;;;;;12.13;9.63;;;25.50;70.50;;;;;;4991893;28;20101;-79
2023/08/15 01:35:13;;;;;;;12.52;9.80;;;25.50;69.60;;;;;;4992529;28;20034;-79
2023/08/15 01:37:47;;;;;;;10.68;9.68;;;25.40;70.80;;;;;;4991945;28;20019;-79
2023/08/15 01:40:16;;;;;;;13.50;10.32;;;25.30;70.80;;;;;;4984294;28;20087;-78
2023/08/15 01:42:43;;;;;;;12.50;11.20;;;25.30;71.10;;;;;;4994169;28;20041;-79
2023/08/15 01:45:11;;;;;;;10.88;9.60;;;25.30;71.00;;;;;;4977541;28;20038;-78
2023/08/15 01:47:37;;;;;;;14.45;10.82;;;25.40;71.00;;;;;;4974661;28;20027;-79
2023/08/15 01:50:05;;;;;;;12.27;10.10;;;25.40;71.10;;;;;;4975041;28;20050;-78
2023/08/15 01:52:31;;;;;;;15.32;10.13;;;25.30;71.40;;;;;;4973333;28;20081;-79
2023/08/15 01:54:57;;;;;;;12.13;10.80;;;25.30;71.40;;;;;;4973666;28;20027;-78
2023/08/15 01:57:23;;;;;;;10.77;9.63;;;25.20;71.60;;;;;;4990118;28;20482;-79
2023/08/15 01:59:48;;;;;;;14.77;10.40;;;25.20;71.60;;;;;;4992940;28;20117;-78
2023/08/15 02:02:14;;;;;;;14.63;10.47;;;25.20;71.70;;;;;;4993014;28;20077;-79
2023/08/15 02:04:40;;;;;;;11.57;10.40;;;25.20;71.30;;;;;;4976834;28;20447;-79
2023/08/15 02:07:06;;;;;;;11.10;10.00;;;25.20;71.30;;;;;;4993924;28;20510;-78
2023/08/15 02:09:32;;;;;;;13.67;10.30;;;25.20;71.20;;;;;;4993281;28;20032;-78
2023/08/15 02:11:58;;;;;;;12.20;10.90;;;25.10;71.20;;;;;;4991932;28;20088;-78
2023/08/15 02:14:23;;;;;;;13.77;10.10;;;25.10;71.30;;;;;;4991763;28;20062;-78
2023/08/15 02:16:49;;;;;;;11.47;10.30;;;25.10;71.60;;;;;;4975708;28;20110;-78
2023/08/15 02:19:15;;;;;;;13.63;10.30;;;25.10;71.60;;;;;;4992000;28;20030;-78
2023/08/15 02:21:41;;;;;;;11.13;10.10;;;25.10;71.50;;;;;;4991924;28;20026;-78
2023/08/15 02:24:07;;;;;;;13.80;10.83;;;25.00;71.60;;;;;;4991968;28;20080;-79
2023/08/15 02:26:35;;;;;;;11.87;10.33;;;25.10;71.50;;;;;;4991861;28;20030;-78
2023/08/15 02:29:03;;;;;;;18.67;11.40;;;25.00;71.30;;;;;;4992159;28;20040;-79
2023/08/15 02:31:30;;;;;;;12.45;10.68;;;25.00;71.50;;;;;;4992883;28;20103;-78
2023/08/15 02:33:56;;;;;;;10.98;9.85;;;25.10;71.40;;;;;;4993184;28;20033;-78
2023/08/15 02:36:22;;;;;;;11.13;9.97;;;25.10;71.50;;;;;;4991502;28;20022;-78
2023/08/15 02:38:48;;;;;;;11.27;10.10;;;25.10;71.20;;;;;;4992367;28;20028;-78
2023/08/15 02:41:13;;;;;;;11.37;10.20;;;25.00;71.20;;;;;;4992333;28;20053;-79
2023/08/15 02:43:39;;;;;;;12.03;10.40;;;25.00;71.20;;;;;;4975375;28;20034;-78
2023/08/15 02:46:05;;;;;;;14.90;10.23;;;25.00;71.30;;;;;;4991255;28;20484;-79
2023/08/15 02:48:31;;;;;;;12.63;10.30;;;25.00;71.20;;;;;;4991517;28;20033;-78
2023/08/15 02:50:57;;;;;;;15.27;10.40;;;25.00;71.20;;;;;;4992826;28;20034;-79
2023/08/15 02:53:22;;;;;;;12.60;10.63;;;24.90;71.30;;;;;;4991248;28;20121;-78
2023/08/15 02:55:51;;;;;;;12.97;11.40;;;24.90;71.50;;;;;;4991184;28;20065;-78
2023/08/15 02:58:18;;;;;;;11.57;10.45;;;24.80;71.10;;;;;;4992881;28;20404;-78
2023/08/15 03:00:44;;;;;;;12.55;11.35;;;24.80;71.70;;;;;;4992784;28;20026;-78
2023/08/15 03:03:10;;;;;;;12.70;11.30;;;24.70;72.00;;;;;;4990884;28;20026;-78
2023/08/15 03:05:39;;;;;;;12.40;11.17;;;24.70;72.00;;;;;;4973801;28;20442;-78
2023/08/15 03:08:05;;;;;;;15.25;11.20;;;24.70;72.10;;;;;;4990863;28;20357;-79
2023/08/15 03:10:32;;;;;;;12.63;11.10;;;24.70;72.20;;;;;;4991151;28;20193;-79
2023/08/15 03:13:00;;;;;;;11.90;10.70;;;24.70;72.10;;;;;;4974837;28;20035;-79
2023/08/15 03:15:25;;;;;;;12.03;10.87;;;24.70;71.80;;;;;;4990852;28;20092;-79
2023/08/15 03:17:51;;;;;;;14.00;11.00;;;24.70;71.70;;;;;;4990165;28;20030;-79
2023/08/15 03:20:17;;;;;;;13.07;11.00;;;24.70;71.70;;;;;;4977026;28;20490;-78
2023/08/15 03:22:43;;;;;;;15.37;11.17;;;24.70;71.60;;;;;;4974440;28;20054;-78
2023/08/15 03:25:09;;;;;;;13.70;12.00;;;24.70;71.80;;;;;;4974945;28;20512;-79
2023/08/15 03:27:35;;;;;;;14.50;10.90;;;24.70;71.70;;;;;;4991908;28;20023;-78
2023/08/15 03:30:02;;;;;;;11.15;10.02;;;24.70;71.80;;;;;;4990885;28;20089;-78
2023/08/15 03:32:29;;;;;;;13.52;10.57;;;24.70;71.90;;;;;;4990853;28;20038;-79
2023/08/15 03:34:55;;;;;;;11.60;10.43;;;24.70;71.90;;;;;;4990735;28;20141;-78
2023/08/15 03:37:22;;;;;;;12.67;11.07;;;24.70;71.50;;;;;;4996842;28;20497;-79
2023/08/15 03:39:47;;;;;;;14.15;11.32;;;24.70;71.30;;;;;;4981317;28;20050;-79
2023/08/15 03:42:14;;;;;;;14.80;10.90;;;24.70;71.30;;;;;;4997916;28;20058;-79
2023/08/15 03:44:40;;;;;;;16.37;10.67;;;24.70;71.30;;;;;;4987891;28;20477;-78
2023/08/15 03:47:06;;;;;;;11.57;10.57;;;24.70;71.20;;;;;;5002074;28;20037;-79
2023/08/15 03:49:32;;;;;;;12.70;10.70;;;24.70;71.10;;;;;;4998736;28;20029;-79
2023/08/15 03:51:57;;;;;;;30.63;11.77;;;24.70;71.30;;;;;;4999002;28;20491;-79
2023/08/15 03:54:23;;;;;;;17.07;11.53;;;24.70;71.40;;;;;;5002223;28;20053;-79
2023/08/15 03:56:49;;;;;;;12.37;11.00;;;24.70;71.30;;;;;;4988379;28;20042;-79
2023/08/15 03:59:15;;;;;;;13.13;11.53;;;24.70;71.20;;;;;;5000910;28;20030;-80
2023/08/15 04:01:41;;;;;;;13.03;11.67;;;24.60;71.70;;;;;;4999216;28;20121;-80
2023/08/15 04:04:07;;;;;;;13.27;11.97;;;24.60;71.40;;;;;;4984801;28;20039;-80
2023/08/15 04:06:33;;;;;;;14.10;11.50;;;24.60;71.40;;;;;;4980338;28;20498;-80
2023/08/15 04:08:59;;;;;;;13.83;12.60;;;24.60;71.60;;;;;;4978811;28;20234;-80
2023/08/15 04:11:25;;;;;;;17.50;11.67;;;24.60;71.80;;;;;;4979168;28;20098;-79
2023/08/15 04:13:50;;;;;;;14.57;12.13;;;24.60;71.80;;;;;;4978482;28;20365;-80
2023/08/15 04:16:16;;;;;;;14.23;12.57;;;24.60;71.90;;;;;;5014631;23;20042;-78
2023/08/15 04:18:42;;;;;;;15.73;11.87;;;24.50;72.10;;;;;;4958667;28;20499;-78
2023/08/15 04:21:11;;;;;;;15.67;13.87;;;24.50;71.90;;;;;;4959792;28;20026;-79
2023/08/15 04:23:37;;;;;;;15.60;12.27;;;24.50;71.80;;;;;;4944258;28;20111;-79
2023/08/15 04:26:02;;;;;;;16.07;14.43;;;24.50;72.20;;;;;;4975891;28;20035;-78
2023/08/15 04:28:28;;;;;;;15.23;13.80;;;24.50;72.20;;;;;;4958768;28;20041;-78
2023/08/15 04:30:54;;;;;;;15.70;14.03;;;24.50;72.10;;;;;;4959264;28;20030;-79
2023/08/15 04:33:20;;;;;;;16.47;14.17;;;24.50;72.10;;;;;;4942769;28;20038;-78
2023/08/15 04:35:46;;;;;;;14.65;13.15;;;24.50;72.60;;;;;;4959111;28;20062;-78
2023/08/15 04:38:14;;;;;;;15.00;13.50;;;24.50;72.20;;;;;;4976174;28;20445;-79
2023/08/15 04:40:40;;;;;;;16.02;14.07;;;24.50;72.60;;;;;;4959198;28;20100;-79
2023/08/15 04:43:07;;;;;;;15.13;13.52;;;24.50;73.40;;;;;;4958997;28;20453;-78
2023/08/15 04:45:40;;;;;;;16.73;13.45;;;24.40;73.70;;;;;;4958824;28;20058;-79
2023/08/15 04:48:09;;;;;;;14.23;12.43;;;24.40;74.30;;;;;;4958200;28;20033;-78
2023/08/15 04:50:36;;;;;;;14.75;13.07;;;24.30;74.80;;;;;;4958865;28;20397;-79
2023/08/15 04:53:03;;;;;;;14.93;13.40;;;24.30;75.10;;;;;;4959326;28;20397;-79
2023/08/15 04:55:29;;;;;;;15.35;13.85;;;24.20;75.50;;;;;;4976399;28;20038;-79
2023/08/15 04:57:55;;;;;;;15.87;14.13;;;24.10;75.90;;;;;;4958510;28;20031;-80
2023/08/15 05:00:21;;;;;;;15.90;14.20;;;24.10;76.30;;;;;;4959266;28;20034;-80
2023/08/15 05:02:48;;;;;;;18.75;16.70;;;24.00;76.30;;;;;;4976799;28;20456;-79
2023/08/15 05:05:14;;;;;;;17.33;15.57;;;24.00;76.20;;;;;;4942937;28;20057;-78
2023/08/15 05:07:40;;;;;;;16.95;15.32;;;24.10;76.00;;;;;;4958916;28;20027;-78
2023/08/15 05:10:08;;;;;;;15.73;13.70;;;24.10;75.50;;;;;;4960799;28;20051;-79
2023/08/15 05:12:35;;;;;;;19.55;14.18;;;24.10;76.00;;;;;;4945254;28;20053;-79
2023/08/15 05:15:01;;;;;;;15.70;14.20;;;24.10;75.90;;;;;;4960108;28;20556;-78
2023/08/15 05:17:28;;;;;;;17.42;14.38;;;24.10;75.70;;;;;;4959064;28;20027;-79
2023/08/15 05:19:54;;;;;;;17.17;13.83;;;24.10;76.00;;;;;;4959267;28;20117;-79
2023/08/15 05:22:20;;;;;;;16.80;15.10;;;24.10;75.80;;;;;;4960592;28;20031;-79
2023/08/15 05:24:46;;;;;;;17.13;14.93;;;24.20;75.80;;;;;;4978231;28;20162;-79
2023/08/15 05:27:12;;;;;;;21.57;15.60;;;24.20;75.90;;;;;;4976209;28;20054;-79
2023/08/15 05:29:43;;;;;;;17.30;15.48;;;24.20;76.20;;;;;;4958624;28;20034;-79
2023/08/15 05:32:10;;;;;;;18.13;14.52;;;24.30;75.90;;;;;;4958308;28;20034;-79
2023/08/15 05:34:35;;;;;;;15.57;13.98;;;24.30;76.00;;;;;;4944018;28;20027;-79
2023/08/15 05:37:01;;;;;;;19.17;16.37;;;24.20;76.70;;;;;;4959476;28;20078;-78
2023/08/15 05:39:27;;;;;;;17.33;15.23;;;24.20;76.90;;;;;;4942562;28;20030;-78
2023/08/15 05:41:53;;;;;;;18.23;15.83;;;24.20;77.10;;;;;;4975498;28;20085;-79
2023/08/15 05:44:19;;;;;;;18.53;16.47;;;24.20;77.00;;;;;;4975558;28;20544;-79
2023/08/15 05:46:45;;;;;;;17.13;15.43;;;24.20;76.80;;;;;;4975496;28;20027;-78
2023/08/15 05:49:10;;;;;;;18.67;16.73;;;24.30;76.80;;;;;;4975241;28;20027;-78
2023/08/15 05:51:36;;;;;;;18.27;16.57;;;24.30;76.50;;;;;;4982158;28;20527;-80
2023/08/15 05:54:02;;;;;;;17.27;15.40;;;24.30;76.70;;;;;;4977582;28;20030;-79
2023/08/15 05:56:28;;;;;;;21.10;15.43;;;24.30;76.40;;;;;;4976599;28;20034;-78
2023/08/15 05:58:54;;;;;;;19.93;16.00;;;24.40;75.60;;;;;;4994080;28;20038;-79
2023/08/15 06:01:21;;;;;;;16.43;14.93;;;24.50;75.80;;;;;;4975807;28;20030;-79
2023/08/15 06:03:47;;;;;;;17.73;15.55;;;24.50;75.90;;;;;;4993607;28;20042;-79
2023/08/15 06:06:13;;;;;;;18.95;16.10;;;24.50;75.70;;;;;;4993447;28;20042;-78
2023/08/15 06:08:39;;;;;;;16.50;14.77;;;24.60;75.20;;;;;;4993611;28;20583;-78
2023/08/15 06:11:05;;;;;;;17.33;15.30;;;24.70;75.00;;;;;;4993767;28;20373;-78
2023/08/15 06:13:31;;;;;;;20.58;15.25;;;24.80;75.10;;;;;;4994026;28;20038;-79
2023/08/15 06:15:57;;;;;;;17.33;15.63;;;24.80;75.90;;;;;;4993615;28;20496;-80
2023/08/15 06:18:23;;;;;;;17.70;15.37;;;24.80;75.20;;;;;;4993677;28;20105;-79
2023/08/15 06:20:49;;;;;;;20.53;15.87;;;24.90;75.20;;;;;;4993733;28;20034;-79
2023/08/15 06:23:14;;;;;;;18.47;14.70;;;25.00;75.10;;;;;;4976343;28;20030;-82
2023/08/15 06:25:40;;;;;;;21.83;14.57;;;25.00;75.00;;;;;;4995077;28;20642;-83
2023/08/15 06:28:08;;;;;;;15.23;12.53;;;25.10;75.10;;;;;;4975766;28;20034;-84
2023/08/15 06:30:34;;;;;;;13.35;12.00;;;25.10;75.50;;;;;;4993043;28;20448;-84
2023/08/15 06:33:00;;;;;;;12.83;11.73;;;25.20;75.90;;;;;;4992933;28;20065;-85
2023/08/15 06:35:28;;;;;;;12.40;10.87;;;25.30;75.30;;;;;;4958833;28;20026;-84
2023/08/15 06:37:55;;;;;;;15.15;11.65;;;25.40;74.30;;;;;;4956527;28;20050;-83
2023/08/15 06:40:21;;;;;;;18.10;11.63;;;25.50;74.30;;;;;;4940341;28;20038;-83
2023/08/15 06:42:46;;;;;;;12.88;11.68;;;25.60;73.70;;;;;;4940690;28;20031;-83
2023/08/15 06:45:13;;;;;;;13.30;11.97;;;25.60;72.40;;;;;;4940084;28;20031;-87
2023/08/15 06:47:39;;;;;;;17.38;11.57;;;25.70;72.10;;;;;;4937061;29;20030;-83
2023/08/15 06:50:06;;;;;;;14.88;11.85;;;25.70;72.00;;;;;;4920936;29;20028;-83
2023/08/15 06:52:32;;;;;;;17.20;12.55;;;25.80;71.20;;;;;;4937259;29;20031;-84
2023/08/15 06:54:58;;;;;;;31.23;13.13;;;25.80;71.30;;;;;;4952872;29;20046;-83
2023/08/15 06:57:23;;;;;;;16.97;11.90;;;25.90;71.00;;;;;;4936576;29;20027;-84
2023/08/15 06:59:49;;;;;;;13.40;12.07;;;26.00;70.90;;;;;;4954000;29;20031;-83
2023/08/15 07:02:15;;;;;;;13.93;10.97;;;26.00;71.10;;;;;;4936809;29;20027;-83
2023/08/15 07:04:41;;;;;;;11.50;10.47;;;26.10;70.70;;;;;;4964971;28;20045;-83
2023/08/15 07:07:11;;;;;;;13.90;11.10;;;26.10;70.00;;;;;;4939895;28;20129;-84
2023/08/15 07:09:37;;;;;;;12.75;10.32;;;26.20;69.70;;;;;;4973171;28;20564;-85
2023/08/15 07:12:05;;;;;;;13.80;9.03;;;26.30;69.90;;;;;;4973060;28;20035;-84
2023/08/15 07:14:31;;;;;;;17.50;9.23;;;26.30;68.50;;;;;;4939625;28;20031;-83
2023/08/15 07:16:57;;;;;;;;;;;26.40;68.00;;;;;;4956422;28;20121;-84
2023/08/15 07:19:23;;;;;;;15.05;9.77;;;26.40;67.30;;;;;;4973045;28;19957;-84
2023/08/15 07:21:49;;;;;;;13.17;9.73;;;26.50;67.70;;;;;;4973336;28;20022;-85
2023/08/15 07:24:17;;;;;;;9.67;8.67;;;26.50;67.90;;;;;;4955619;28;20277;-86
2023/08/15 07:26:43;;;;;;;8.80;6.75;;;26.60;67.10;;;;;;4955749;28;20058;-86
2023/08/15 07:29:09;;;;;;;10.05;7.30;;;26.60;66.50;;;;;;4955512;28;20093;-85
2023/08/15 07:31:35;;;;;;;14.97;8.73;;;26.70;65.30;;;;;;4955748;28;20039;-85
2023/08/15 07:34:01;;;;;;;12.33;7.03;;;26.70;65.00;;;;;;4949364;29;20042;-84
2023/08/15 07:36:27;;;;;;;8.05;7.18;;;26.80;65.10;;;;;;4954230;29;20438;-84
2023/08/15 07:38:53;;;;;;;11.43;7.00;;;26.90;65.20;;;;;;4936662;29;20026;-82
2023/08/15 07:41:19;;;;;;;8.17;6.60;;;26.90;65.50;;;;;;4954066;29;20049;-83
2023/08/15 07:43:45;;;;;;;7.57;6.87;;;27.00;65.40;;;;;;4936525;29;20989;-83
2023/08/15 07:46:12;;;;;;;7.95;6.90;;;27.00;64.60;;;;;;4920856;29;20046;-83
2023/08/15 07:48:38;;;;;;;;;;;27.00;65.00;;;;;;4953685;29;20082;-84
2023/08/15 07:51:04;;;;;;;8.93;7.63;;;27.10;66.50;;;;;;4952286;29;19911;-83
2023/08/15 07:53:30;;;;;;;7.83;6.73;;;27.10;65.10;;;;;;4937484;28;20041;-84
2023/08/15 07:55:57;;;;;;;8.18;7.15;;;27.20;65.30;;;;;;4955679;28;20090;-84
2023/08/15 07:58:22;;;;;;;17.05;8.07;;;27.20;65.00;;;;;;4955187;28;20027;-84
2023/08/15 08:00:48;;;;;;;11.17;7.27;;;27.30;65.00;;;;;;4955292;28;20074;-84
2023/08/15 08:03:14;;;;;;;12.13;7.27;;;27.30;64.90;;;;;;4939315;28;20085;-83
2023/08/15 08:05:40;;;;;;;10.67;8.03;;;27.30;65.00;;;;;;4936141;29;20524;-83
2023/08/15 08:08:06;;;;;;;8.13;6.80;;;27.30;64.20;;;;;;4952989;29;20126;-83
2023/08/15 08:10:32;;;;;;;11.68;6.80;;;27.30;64.80;;;;;;4936147;29;20034;-84
2023/08/15 08:13:01;;;;;;;8.55;7.03;;;27.40;64.60;;;;;;4936036;29;20134;-82
2023/08/15 08:15:28;;;;;;;8.70;6.63;;;27.50;63.80;;;;;;4936000;29;20501;-84
2023/08/15 08:17:53;;;;;;;9.18;5.82;;;27.50;63.80;;;;;;4935899;29;20090;-83
2023/08/15 08:20:20;;;;;;;9.83;6.37;;;27.60;62.70;;;;;;4953202;29;20090;-84
2023/08/15 08:22:47;;;;;;;6.97;6.00;;;27.60;62.00;;;;;;4936631;29;20580;-84
2023/08/15 08:25:13;;;;;;;8.23;7.30;;;27.60;62.10;;;;;;4939375;29;20406;-84
2023/08/15 08:27:38;;;;;;;9.20;6.57;;;27.70;62.10;;;;;;4923488;29;20122;-84
2023/08/15 08:30:06;;;;;;;9.13;6.33;;;27.80;62.40;;;;;;4923840;29;20477;-83
2023/08/15 08:32:32;;;;;;;11.80;6.20;;;27.80;61.50;;;;;;4923655;29;20425;-84
2023/08/15 08:34:58;;;;;;;6.13;5.53;;;27.80;61.10;;;;;;4923272;29;20031;-84
2023/08/15 08:37:24;;;;;;;8.30;5.93;;;27.80;61.50;;;;;;4923402;29;20266;-86
2023/08/15 08:39:49;;;;;;;11.43;7.13;;;27.90;61.40;;;;;;4939115;29;20122;-87
2023/08/15 08:42:15;;;;;;;12.60;6.27;;;28.00;61.20;;;;;;4923793;29;20027;-83
2023/08/15 08:44:42;;;;;;;9.80;6.15;;;28.10;61.80;;;;;;4956393;28;20035;-83
2023/08/15 08:47:07;;;;;;;7.68;5.50;;;28.10;61.20;;;;;;4956706;29;20031;-82
2023/08/15 08:49:37;;;;;;;10.00;5.13;;;28.20;60.90;;;;;;4956483;29;20041;-78
2023/08/15 08:52:04;;;;;;;8.18;5.97;;;28.30;60.40;;;;;;4957421;29;20524;-79
2023/08/15 08:54:30;;;;;;;8.20;5.78;;;28.40;59.90;;;;;;4957869;29;20027;-78
2023/08/15 08:57:00;;;;;;;7.07;5.47;;;28.40;59.70;;;;;;4957892;29;20034;-78
2023/08/15 08:59:28;;;;;;;7.53;4.72;;;28.50;60.00;;;;;;4940657;29;20037;-78
2023/08/15 09:01:54;;;;;;;6.07;4.68;;;28.50;58.40;;;;;;4940300;29;20093;-78
2023/08/15 09:04:21;;;;;;;10.05;4.90;;;28.70;58.00;;;;;;4958381;28;20066;-78
2023/08/15 09:06:47;;;;;;;7.60;5.53;;;28.70;58.30;;;;;;4941004;29;20035;-78
2023/08/15 09:09:13;;;;;;;7.25;5.60;;;28.80;58.20;;;;;;4940763;29;20047;-79
2023/08/15 09:11:38;;;;;;;8.23;5.10;;;28.80;58.10;;;;;;4960877;29;20054;-79
2023/08/15 09:14:06;;;;;;;9.13;5.27;;;28.90;58.00;;;;;;4927073;29;20042;-78
2023/08/15 09:16:32;;;;;;;11.18;5.45;;;28.90;58.40;;;;;;4958586;29;20121;-78
2023/08/15 09:19:02;;;;;;;7.82;5.60;;;29.00;58.10;;;;;;4941006;29;20031;-78
2023/08/15 09:21:29;;;;;;;5.78;5.03;;;29.10;57.90;;;;;;4941194;29;20054;-79
2023/08/15 09:24:00;;;;;;;7.13;5.88;;;29.20;58.10;;;;;;4958361;28;20719;-78
2023/08/15 09:26:26;;;;;;;10.35;5.38;;;29.20;57.60;;;;;;4959173;29;20051;-78
2023/08/15 09:28:52;;;;;;;8.43;5.10;;;29.20;57.80;;;;;;4942278;29;20038;-79
2023/08/15 09:31:18;;;;;;;7.78;5.55;;;29.20;57.40;;;;;;4959571;29;20278;-79
2023/08/15 09:33:44;;;;;;;;;;;29.30;56.80;;;;;;4941323;29;20036;-79
2023/08/15 09:36:10;;;;;;;6.50;4.75;;;29.30;56.60;;;;;;4957527;28;19973;-78
2023/08/15 09:38:37;;;;;;;9.90;5.78;;;29.40;57.80;;;;;;4940809;29;20030;-79
2023/08/15 09:41:03;;;;;;;;;;;29.50;57.00;;;;;;4957606;28;20486;-79
2023/08/15 09:43:32;;;;;;;7.13;5.20;;;29.50;56.20;;;;;;4956618;28;19993;-79
2023/08/15 09:46:01;;;;;;;7.78;5.13;;;29.40;55.10;;;;;;4957000;28;20036;-79
2023/08/15 09:48:30;;;;;;;7.30;5.45;;;29.40;55.50;;;;;;4958237;29;20035;-79
2023/08/15 09:50:57;;;;;;;9.88;6.63;;;29.50;55.70;;;;;;4940064;29;20126;-78
2023/08/15 09:53:24;;;;;;;8.45;5.82;;;29.60;56.70;;;;;;4940593;29;20054;-78
2023/08/15 09:55:51;;;;;;;10.15;5.30;;;29.70;57.60;;;;;;4940748;29;20461;-79
2023/08/15 09:58:18;;;;;;;8.25;5.63;;;29.80;57.80;;;;;;4940739;29;20104;-78
2023/08/15 10:00:50;;;;;;;8.38;5.60;;;29.90;57.10;;;;;;4958526;29;20035;-79
2023/08/15 10:03:24;;;;;;;10.23;6.15;;;30.00;57.50;;;;;;4958842;29;20098;-78
2023/08/15 10:05:56;;;;;;;8.73;5.20;;;30.00;56.20;;;;;;4941888;29;20121;-78
2023/08/15 10:08:23;;;;;;;11.00;5.75;;;30.00;55.60;;;;;;4959041;29;20050;-79
2023/08/15 10:10:50;;;;;;;8.45;4.68;;;30.10;54.90;;;;;;4959911;29;20055;-78
2023/08/15 10:13:22;;;;;;;10.32;5.30;;;30.10;55.90;;;;;;4964400;28;20031;-79
2023/08/15 10:15:48;;;;;;;10.63;4.45;;;30.20;54.90;;;;;;4969899;28;20574;-78
2023/08/15 10:18:14;;;;;;;7.07;4.28;;;30.30;55.40;;;;;;4960342;28;20023;-80
2023/08/15 10:20:40;;;;;;;7.10;4.93;;;30.40;55.60;;;;;;4946593;28;20027;-79
2023/08/15 10:23:09;;;;;;;9.73;5.30;;;30.40;55.20;;;;;;4967727;28;20031;-79
2023/08/15 10:25:41;;;;;;;7.32;4.97;;;30.50;55.30;;;;;;4959390;28;20382;-80
2023/08/15 10:28:12;;;;;;;7.55;4.75;;;30.60;54.40;;;;;;4972715;28;20026;-78
2023/08/15 10:30:48;;;;;;;7.07;5.05;;;30.70;55.70;;;;;;4947366;28;20031;-80
2023/08/15 10:33:19;;;;;;;6.72;5.07;;;30.80;56.20;;;;;;4962739;28;20077;-79
2023/08/15 10:35:54;;;;;;;8.48;5.63;;;30.90;54.90;;;;;;4975488;28;20069;-79
2023/08/15 10:38:40;;;;;;;8.85;6.25;;;31.00;55.20;;;;;;4940620;28;20086;-79
2023/08/15 10:41:17;;;;;;;5.82;5.30;;;31.10;53.80;;;;;;4974110;28;20027;-79
2023/08/15 10:43:49;;;;;;;;;;;31.20;54.20;;;;;;4956749;28;20118;-79
2023/08/15 10:46:18;;;;;;;8.88;5.28;;;31.20;54.40;;;;;;4953167;28;19910;-79
2023/08/15 10:48:49;;;;;;;7.95;5.10;;;31.20;54.40;;;;;;4917337;28;20504;-79
2023/08/15 10:51:23;;;;;;;7.35;5.82;;;31.40;55.40;;;;;;4964729;28;20035;-79
2023/08/15 10:53:50;;;;;;;7.07;5.70;;;31.50;53.80;;;;;;4955502;28;20457;-78
2023/08/15 10:56:18;;;;;;;8.38;6.35;;;31.50;54.40;;;;;;4963318;28;20043;-78
2023/08/15 10:58:46;;;;;;;10.82;5.78;;;31.60;53.50;;;;;;4948052;28;20056;-79
2023/08/15 11:01:18;;;;;;;7.32;5.00;;;31.60;54.10;;;;;;4948377;29;20490;-79
2023/08/15 11:03:48;;;;;;;10.18;5.43;;;31.70;53.80;;;;;;4958018;28;20034;-79
2023/08/15 11:06:14;;;;;;;7.38;4.90;;;31.80;52.50;;;;;;4943416;29;20521;-79
2023/08/15 11:08:41;;;;;;;;;;;31.90;53.30;;;;;;4942189;29;20027;-78
2023/08/15 11:11:08;;;;;;;6.88;4.78;;;31.90;52.60;;;;;;4954223;28;20512;-79
2023/08/15 11:13:40;;;;;;;4.88;4.43;;;31.90;52.40;;;;;;4953581;29;20039;-79
2023/08/15 11:16:07;;;;;;;5.05;3.65;;;31.90;52.60;;;;;;4964330;28;20031;-78
2023/08/15 11:18:34;;;;;;;6.82;4.25;;;32.00;53.30;;;;;;4946349;28;20089;-78
2023/08/15 11:21:01;;;;;;;8.57;4.20;;;32.20;52.70;;;;;;4926285;29;20034;-78
2023/08/15 11:23:28;;;;;;;5.13;4.63;;;32.30;52.50;;;;;;4953846;29;20517;-78
2023/08/15 11:26:02;;;;;;;5.63;3.65;;;32.40;51.90;;;;;;4938880;28;20038;-78
2023/08/15 11:28:28;;;;;;;6.57;4.65;;;32.60;53.90;;;;;;4971942;28;20030;-79
2023/08/15 11:30:54;;;;;;;8.63;3.65;;;32.70;51.40;;;;;;4958593;28;20379;-79
2023/08/15 11:33:21;;;;;;;5.78;4.10;;;32.80;52.00;;;;;;4953586;28;20062;-80
2023/08/15 11:35:47;;;;;;;8.38;3.97;;;32.90;51.40;;;;;;4947185;29;20034;-78
2023/08/15 11:38:16;;;;;;;7.75;4.00;;;33.00;50.60;;;;;;4936290;29;20031;-78
2023/08/15 11:40:42;;;;;;;7.10;3.97;;;33.20;50.70;;;;;;4953511;29;20454;-79
2023/08/15 11:43:08;;;;;;;4.82;3.90;;;33.30;50.10;;;;;;4936315;29;20027;-79
2023/08/15 11:45:34;;;;;;;5.65;4.15;;;33.40;49.50;;;;;;4961825;28;20118;-79
2023/08/15 11:48:03;;;;;;;3.92;3.63;;;33.50;49.20;;;;;;4972449;28;20034;-79
2023/08/15 11:50:32;;;;;;;5.35;3.90;;;33.40;49.10;;;;;;4965793;28;20401;-79
2023/08/15 11:52:59;;;;;;;10.38;4.25;;;33.50;49.60;;;;;;4954552;29;20082;-79
2023/08/15 11:55:25;;;;;;;6.30;3.78;;;33.60;49.30;;;;;;4937557;29;20034;-79
2023/08/15 11:57:51;;;;;;;;;;;33.70;48.70;;;;;;4955011;28;20486;-79
2023/08/15 12:00:21;;;;;;;6.53;3.28;;;33.40;48.10;;;;;;4961141;28;19910;-79
2023/08/15 12:02:49;;;;;;;10.18;3.60;;;33.30;49.10;;;;;;4977475;28;20019;-79
2023/08/15 12:05:17;;;;;;;3.85;3.55;;;33.40;49.30;;;;;;4977561;28;20106;-79
2023/08/15 12:07:45;;;;;;;6.10;3.60;;;33.50;49.80;;;;;;4959607;28;20031;-79
2023/08/15 12:10:12;;;;;;;5.57;3.35;;;33.60;49.00;;;;;;4977074;28;20023;-79
2023/08/15 12:12:47;;;;;;;4.68;3.63;;;33.70;49.50;;;;;;4978332;28;20026;-78
2023/08/15 12:15:15;;;;;;;8.45;3.28;;;33.80;49.10;;;;;;4946348;28;20063;-79
2023/08/15 12:17:41;;;;;;;4.43;3.92;;;33.80;50.20;;;;;;4957161;28;20031;-79
2023/08/15 12:20:11;;;;;;;7.05;3.72;;;33.90;49.30;;;;;;4964986;28;20027;-79
2023/08/15 12:22:39;;;;;;;5.13;3.25;;;33.80;50.20;;;;;;4977030;28;20553;-79
2023/08/15 12:25:07;;;;;;;3.72;3.10;;;34.00;50.20;;;;;;4943541;28;20034;-78
2023/08/15 12:27:37;;;;;;;4.90;3.50;;;34.20;49.50;;;;;;4958104;28;20111;-79
2023/08/15 12:30:04;;;;;;;6.00;3.80;;;34.20;48.70;;;;;;4976614;28;20397;-78
2023/08/15 12:32:30;;;;;;;8.27;3.58;;;34.20;49.40;;;;;;4940131;29;20565;-79
2023/08/15 12:34:56;;;;;;;5.63;3.38;;;34.40;50.10;;;;;;4940294;29;20039;-80
2023/08/15 12:37:23;;;;;;;4.85;3.10;;;34.10;49.20;;;;;;4957854;28;20475;-79